createdAt,value
2022-10-20T00:03:42.614Z,9.92
2022-10-20T00:08:45.996Z,9.92
2022-10-20T00:13:49.789Z,10.01
2022-10-20T00:18:51.799Z,9.93
2022-10-20T00:23:53.819Z,9.92
2022-10-20T00:28:56.553Z,9.98
2022-10-20T00:33:58.362Z,10.22
2022-10-20T00:39:01.302Z,10.34
2022-10-20T00:44:40.681Z,10.32
2022-10-20T00:49:42.556Z,10.18
2022-10-20T00:54:44.542Z,10.12
2022-10-20T00:59:46.586Z,10.09
2022-10-20T01:04:49.155Z,10.01
2022-10-20T01:09:51.085Z,9.86
2022-10-20T01:15:11.140Z,9.81
2022-10-20T01:20:28.176Z,9.82
2022-10-20T01:26:01.159Z,9.83
2022-10-20T01:31:13.050Z,9.56
2022-10-20T01:36:25.201Z,9.63
2022-10-20T01:41:35.846Z,9.52
2022-10-20T01:46:40.697Z,9.48
2022-10-20T01:57:05.198Z,9.41
2022-10-20T02:02:32.805Z,9.58
2022-10-20T02:07:34.842Z,9.75
2022-10-20T02:12:41.620Z,9.86
2022-10-20T02:17:46.698Z,9.87
2022-10-20T02:22:49.483Z,10.05
2022-10-20T02:27:51.865Z,10.22
2022-10-20T02:32:53.611Z,10.33
2022-10-20T02:37:56.820Z,10.27
2022-10-20T02:42:58.522Z,10.29
2022-10-20T02:48:00.349Z,10.40
2022-10-20T02:53:02.911Z,10.47
2022-10-20T02:58:04.655Z,10.43
2022-10-20T03:03:06.358Z,10.15
2022-10-20T03:08:08.064Z,9.97
2022-10-20T03:13:10.499Z,10.01
2022-10-20T03:18:12.157Z,10.09
2022-10-20T03:23:16.402Z,10.13
2022-10-20T03:28:20.978Z,10.20
2022-10-20T03:33:22.737Z,10.17
2022-10-20T03:38:24.510Z,10.13
2022-10-20T03:43:26.184Z,9.93
2022-10-20T03:48:27.825Z,9.93
2022-10-20T03:53:29.898Z,9.80
2022-10-20T03:58:31.559Z,9.85
2022-10-20T04:03:33.264Z,9.93
2022-10-20T04:08:35.119Z,9.99
2022-10-20T04:13:36.860Z,10.03
2022-10-20T04:18:38.704Z,9.97
2022-10-20T04:23:40.406Z,9.87
2022-10-20T04:28:42.862Z,9.87
2022-10-20T04:33:44.561Z,9.74
2022-10-20T04:38:46.253Z,9.54
2022-10-20T04:43:52.268Z,9.55
2022-10-20T04:48:54.166Z,9.66
2022-10-20T04:53:55.940Z,9.70
2022-10-20T04:58:58.625Z,9.71
2022-10-20T05:04:00.381Z,9.59
2022-10-20T05:09:05.173Z,9.57
2022-10-20T05:14:07.661Z,9.56
2022-10-20T05:19:09.734Z,9.56
2022-10-20T05:24:18.206Z,9.59
2022-10-20T05:29:24.157Z,9.60
2022-10-20T05:34:25.749Z,10.30
2022-10-20T05:39:27.661Z,10.92
2022-10-20T05:44:29.477Z,11.17
2022-10-20T05:49:31.138Z,11.23
2022-10-20T05:54:32.910Z,11.36
2022-10-20T05:59:34.650Z,11.51
2022-10-20T06:04:36.472Z,11.58
2022-10-20T06:09:39.253Z,11.67
2022-10-20T06:14:40.936Z,11.08
2022-10-20T06:19:42.757Z,10.12
2022-10-20T06:24:44.982Z,9.83
2022-10-20T06:29:46.720Z,9.68
2022-10-20T06:34:48.442Z,9.80
2022-10-20T06:39:50.130Z,9.77
2022-10-20T06:44:51.964Z,9.66
2022-10-20T06:49:53.658Z,9.59
2022-10-20T06:54:55.294Z,9.42
2022-10-20T06:59:56.933Z,9.38
2022-10-20T07:04:58.621Z,9.42
2022-10-20T07:10:00.262Z,9.58
2022-10-20T07:15:01.905Z,9.75
2022-10-20T07:20:04.080Z,9.91
2022-10-20T07:25:07.121Z,10.10
2022-10-20T07:30:09.070Z,10.24
2022-10-20T07:35:10.921Z,10.37
2022-10-20T07:40:12.868Z,10.42
2022-10-20T07:45:14.657Z,10.44
2022-10-20T07:50:16.546Z,10.51
2022-10-20T07:55:37.563Z,10.67
2022-10-20T08:05:41.855Z,10.97
2022-10-20T08:10:43.534Z,11.05
2022-10-20T08:16:05.070Z,11.11
2022-10-20T08:21:07.727Z,11.23
2022-10-20T08:26:11.544Z,11.30
2022-10-20T08:31:13.707Z,11.47
2022-10-20T08:36:16.047Z,11.56
2022-10-20T08:41:21.177Z,11.69
2022-10-20T08:46:37.224Z,11.81
2022-10-20T08:51:39.051Z,11.92
2022-10-20T08:56:40.886Z,12.08
2022-10-20T09:01:42.625Z,12.26
2022-10-20T09:06:46.927Z,12.33
2022-10-20T09:11:49.185Z,12.40
2022-10-20T09:17:09.152Z,12.59
2022-10-20T09:22:13.612Z,12.75
2022-10-20T09:27:18.021Z,12.91
2022-10-20T09:32:50.379Z,13.07
2022-10-20T09:38:17.419Z,13.22
2022-10-20T09:43:19.910Z,13.29
2022-10-20T09:48:28.711Z,13.46
2022-10-20T09:53:49.660Z,13.48
2022-10-20T09:58:51.666Z,13.63
2022-10-20T10:04:00.301Z,13.79
2022-10-20T10:09:02.439Z,14.04
2022-10-20T10:14:05.173Z,14.19
2022-10-20T10:19:07.728Z,14.23
2022-10-20T10:24:33.380Z,14.25
2022-10-20T10:29:36.362Z,14.32
2022-10-20T10:34:42.629Z,14.40
2022-10-20T10:39:44.593Z,14.59
2022-10-20T10:45:00.655Z,14.71
2022-10-20T10:50:26.847Z,14.80
2022-10-20T10:55:48.418Z,14.96
2022-10-20T11:01:05.719Z,15.13
2022-10-20T11:06:23.687Z,15.21
2022-10-20T11:11:41.009Z,15.20
2022-10-20T11:17:00.539Z,15.29
2022-10-20T11:22:29.813Z,15.33
2022-10-20T11:27:36.736Z,15.36
2022-10-20T11:33:05.826Z,15.55
2022-10-20T11:38:13.943Z,15.76
2022-10-20T11:43:42.995Z,16.01
2022-10-20T11:48:50.787Z,16.11
2022-10-20T11:54:14.227Z,16.22
2022-10-20T11:59:35.232Z,16.18
2022-10-20T12:04:51.768Z,16.24
2022-10-20T12:10:12.250Z,16.14
2022-10-20T12:15:24.488Z,16.10
2022-10-20T12:20:26.139Z,16.13
2022-10-20T12:25:27.783Z,16.19
2022-10-20T12:30:38.558Z,16.12
2022-10-20T12:36:14.725Z,16.18
2022-10-20T12:41:38.088Z,16.39
2022-10-20T12:46:51.315Z,16.54
2022-10-20T12:51:55.943Z,16.84
2022-10-20T12:57:38.557Z,16.84
2022-10-20T13:02:45.204Z,16.74
2022-10-20T13:07:46.948Z,16.76
2022-10-20T13:12:48.794Z,16.80
2022-10-20T13:18:01.021Z,16.95
2022-10-20T13:23:03.481Z,17.03
2022-10-20T13:28:06.850Z,16.95
2022-10-20T13:34:03.179Z,16.92
2022-10-20T13:39:12.124Z,17.01
2022-10-20T13:44:39.382Z,17.00
2022-10-20T13:50:06.310Z,16.96
2022-10-20T13:55:15.996Z,16.95
2022-10-20T14:00:21.915Z,16.98
2022-10-20T14:05:25.283Z,16.90
2022-10-20T14:10:42.279Z,16.82
2022-10-20T14:15:53.591Z,16.74
2022-10-20T14:21:02.808Z,16.72
2022-10-20T14:26:07.629Z,16.74
2022-10-20T14:31:13.017Z,16.75
2022-10-20T14:36:29.498Z,16.76
2022-10-20T14:41:33.722Z,16.69
2022-10-20T14:46:44.882Z,16.57
2022-10-20T14:51:56.358Z,16.47
2022-10-20T14:57:00.892Z,16.45
2022-10-20T15:02:21.396Z,16.43
2022-10-20T15:07:31.809Z,16.22
2022-10-20T15:12:36.625Z,16.10
2022-10-20T15:17:41.307Z,15.97
2022-10-20T15:22:43.235Z,15.87
2022-10-20T15:27:45.145Z,15.83
2022-10-20T15:32:48.033Z,15.90
2022-10-20T15:37:52.596Z,15.87
2022-10-20T15:42:54.931Z,15.84
2022-10-20T15:47:56.850Z,15.87
2022-10-20T15:52:58.491Z,15.86
2022-10-20T15:58:00.650Z,15.80
2022-10-20T16:03:02.478Z,15.60
2022-10-20T16:08:04.576Z,15.45
2022-10-20T16:13:06.730Z,15.51
2022-10-20T16:18:09.870Z,15.54
2022-10-20T16:23:11.837Z,15.46
2022-10-20T16:28:13.550Z,15.40
2022-10-20T16:33:15.362Z,15.41
2022-10-20T16:38:16.991Z,15.34
2022-10-20T16:43:18.679Z,15.22
2022-10-20T16:48:20.641Z,15.18
2022-10-20T16:53:23.681Z,15.18
2022-10-20T16:58:25.372Z,15.12
2022-10-20T17:03:27.329Z,15.02
2022-10-20T17:08:31.735Z,14.92
2022-10-20T17:13:35.482Z,14.82
2022-10-20T17:18:37.404Z,14.81
2022-10-20T17:23:42.673Z,14.79
2022-10-20T17:28:45.121Z,14.81
2022-10-20T17:33:47.235Z,14.82
2022-10-20T17:38:54.157Z,14.85
2022-10-20T17:43:59.154Z,14.89
2022-10-20T17:49:03.806Z,14.89
2022-10-20T17:54:05.709Z,14.87
2022-10-20T17:59:09.324Z,14.80
2022-10-20T18:04:13.597Z,14.75
2022-10-20T18:09:17.718Z,14.69
2022-10-20T18:14:20.166Z,14.54
2022-10-20T18:19:21.993Z,14.45
2022-10-20T18:24:23.967Z,14.26
2022-10-20T18:29:25.998Z,14.20
2022-10-20T18:34:28.114Z,14.19
2022-10-20T18:39:33.693Z,14.07
2022-10-20T18:44:35.902Z,14.01
2022-10-20T18:49:37.551Z,13.99
2022-10-20T18:54:39.596Z,13.94
2022-10-20T18:59:41.719Z,13.79
2022-10-20T19:04:43.420Z,13.74
2022-10-20T19:09:45.200Z,13.76
2022-10-20T19:14:46.806Z,13.67
2022-10-20T19:19:48.569Z,13.58
2022-10-20T19:24:50.305Z,13.55
2022-10-20T19:29:52.102Z,13.54
2022-10-20T19:34:53.870Z,13.27
2022-10-20T19:39:55.953Z,13.29
2022-10-20T19:44:57.606Z,13.41
2022-10-20T19:49:59.390Z,13.24
2022-10-20T19:55:01.450Z,12.97
2022-10-20T20:00:04.881Z,12.89
2022-10-20T20:05:06.873Z,13.02
2022-10-20T20:10:10.139Z,13.02
2022-10-20T20:15:11.915Z,12.99
2022-10-20T20:20:13.601Z,13.06
2022-10-20T20:25:15.371Z,13.07
2022-10-20T20:30:17.108Z,12.99
2022-10-20T20:35:18.756Z,13.07
2022-10-20T20:40:21.417Z,13.14
2022-10-20T20:45:23.221Z,13.19
2022-10-20T20:50:25.356Z,13.21
2022-10-20T20:55:27.859Z,13.26
2022-10-20T21:00:29.467Z,13.18
2022-10-20T21:05:31.130Z,13.06
2022-10-20T21:10:35.346Z,13.15
2022-10-20T21:15:36.990Z,13.12
2022-10-20T21:20:38.655Z,12.95
2022-10-20T21:25:45.870Z,12.83
2022-10-20T21:30:47.597Z,12.77
2022-10-20T21:35:49.302Z,12.89
2022-10-20T21:40:50.979Z,13.03
2022-10-20T21:45:52.597Z,13.04
2022-10-20T21:50:54.287Z,12.98
2022-10-20T21:55:55.945Z,13.03
2022-10-20T22:00:58.014Z,13.10
2022-10-20T22:06:02.569Z,13.00
2022-10-20T22:11:28.928Z,13.02
2022-10-20T22:16:33.149Z,13.02
2022-10-20T22:21:40.337Z,12.90
2022-10-20T22:26:42.666Z,12.83
2022-10-20T22:31:44.388Z,12.93
2022-10-20T22:36:46.177Z,12.84
2022-10-20T22:41:47.827Z,12.79
2022-10-20T22:46:49.482Z,12.85
2022-10-20T22:51:51.131Z,12.75
2022-10-20T22:56:53.074Z,12.78
2022-10-20T23:01:54.821Z,12.81
2022-10-20T23:12:01.775Z,12.80
2022-10-20T23:17:03.556Z,12.81
2022-10-20T23:22:05.235Z,12.79
2022-10-20T23:27:07.308Z,12.86
2022-10-20T23:32:09.097Z,12.99
2022-10-20T23:37:10.740Z,13.08
2022-10-20T23:42:12.533Z,13.20
2022-10-20T23:47:14.181Z,13.28
2022-10-20T23:52:15.998Z,13.30
2022-10-20T23:57:17.671Z,13.24
